Redwood City, CA (94064)

12:44 PM PST on December 05, 2016 (GMT -0800)
Redwood City Hills | | Change Station

Elev 170 ft 37.47 °N, 122.25 °W | Updated 6 seconds ago

Overcast
Overcast
57.9 °F
Feels Like 57.9 °F
N
2.2
Wind Variable Wind from NE
Gusts 2.2 mph

Today
High -- | Low -- °F
--% Chance of Precip.
Yesterday
High -- | Low -- °F
Precip. -- in
Pressure 30.11 in
Visibility 10.0 miles
Clouds Overcast 1900 ft
Dew Point 49 °F
Humidity 72%
Rainfall 0.00 in
Snow Depth Not available.
7:08 AM 4:50 PM
Waxing Crescent, 34% visible
METAR KSQL 051950Z 02005KT 10SM OVC019 12/09 A3011
Pressure 30.11 in
Visibility 10.0 miles
Clouds Overcast 1900 ft
Dew Point 49 °F
Humidity 72%
Rainfall 0.00 in
Snow Depth Not available.
7:08 AM 4:50 PM
Waxing Crescent, 34% visible
METAR KSQL 051950Z 02005KT 10SM OVC019 12/09 A3011

10-Day Weather Forecast

Almanac

Astronomy

Dec. 05, 2016 Rise Set
Actual Time
Civil Twilight
Nautical Twilight
Astronomical Twilight
Moon
Length of Visible Light
Length of Day
Tomorrow will be .
, % of the Moon is Illuminated

Today's Extremes

State Highs State Lows

Community

WunderPhotos

Upload Photos

1,955,861 photos uploaded!

WunderBlog® & News

Nearby

Air Quality

  Air Quality AQ Index Pollutant
Not available.

Snow Depth

Station Depth Elevation

Earthquake Activity

City Distance Mag. Time & Date
Minimum magnitude displayed is 2.5.

Coastal Water Temperatures

Place Temperature

Stations

Nearby Weather Stations

Station Location Temp. Windchill Dew Point Humidity Wind Precip. Elev Updated Type
                   

Watches & Warnings

There are currently no watches in effect.